Time;durP1;ratioP1;P1;durP2;ratioP2;P2;SDS_P1;SDS_P2;PMS_P1;PMS_P2;Temp;Humidity;BMP_temperature;BMP_pressure;BME280_temperature;BME280_humidity;BME280_pressure;Samples;Min_cycle;Max_cycle;Signal;HPM_P1;HPM_P2
2023/01/17 00:01:51;;;;;;;21.73;10.02;;;;;;;;;;10455042;28;20064;-73
2023/01/17 00:12:10;;;;;;;29.42;14.27;;;;;;;;;;10438236;28;20033;-71
2023/01/17 00:17:10;;;;;;;28.90;13.80;;;;;;;;;;10444965;28;20033;-73
2023/01/17 01:35:34;;;;;;;22.50;10.88;;;;;;;;;;10445449;28;20032;-75
2023/01/17 01:40:41;;;;;;;23.98;11.30;;;;;;;;;;10460922;28;20067;-74
2023/01/17 01:45:45;;;;;;;24.42;10.25;;;;;;;;;;10445062;28;20029;-72
2023/01/17 01:50:47;;;;;;;21.02;10.05;;;;;;;;;;10444919;28;20112;-74
2023/01/17 01:55:48;;;;;;;24.05;10.93;;;;;;;;;;10445100;28;20025;-75
2023/01/17 02:00:48;;;;;;;19.85;9.95;;;;;;;;;;10443187;28;20122;-71
2023/01/17 02:05:48;;;;;;;20.15;9.90;;;;;;;;;;10444668;28;20025;-72
2023/01/17 02:10:49;;;;;;;19.13;10.23;;;;;;;;;;10459602;28;20491;-70
2023/01/17 02:16:01;;;;;;;21.90;9.32;;;;;;;;;;10459845;28;20037;-76
2023/01/17 02:21:04;;;;;;;24.45;10.30;;;;;;;;;;10452576;28;20028;-74
2023/01/17 02:26:26;;;;;;;23.83;10.65;;;;;;;;;;10458223;28;20067;-74
2023/01/17 02:31:31;;;;;;;22.92;10.90;;;;;;;;;;10464697;28;20025;-70
2023/01/17 02:36:34;;;;;;;22.20;10.23;;;;;;;;;;10458388;28;20112;-73
2023/01/17 02:41:36;;;;;;;24.25;10.02;;;;;;;;;;10458697;28;20040;-74
2023/01/17 02:46:46;;;;;;;22.67;10.52;;;;;;;;;;10441918;28;20086;-74
2023/01/17 02:51:47;;;;;;;27.05;11.80;;;;;;;;;;10458212;28;20087;-75
2023/01/17 02:56:47;;;;;;;27.58;12.13;;;;;;;;;;10458342;28;20143;-77
2023/01/17 03:01:58;;;;;;;24.88;11.73;;;;;;;;;;10457559;28;20049;-73
2023/01/17 03:07:03;;;;;;;28.27;11.43;;;;;;;;;;10440986;28;20483;-73
2023/01/17 03:12:04;;;;;;;27.42;11.43;;;;;;;;;;10457408;28;20056;-77
2023/01/17 03:17:04;;;;;;;27.92;12.65;;;;;;;;;;10453901;28;20911;-74
2023/01/17 03:22:05;;;;;;;25.13;12.65;;;;;;;;;;10445664;28;20025;-77
2023/01/17 03:27:06;;;;;;;23.60;11.43;;;;;;;;;;10456315;28;20053;-78
2023/01/17 03:32:06;;;;;;;28.55;11.68;;;;;;;;;;10457157;28;20056;-74
2023/01/17 03:37:06;;;;;;;28.50;11.35;;;;;;;;;;10440945;28;20392;-76
2023/01/17 03:42:07;;;;;;;26.98;12.13;;;;;;;;;;10456947;28;20020;-71
2023/01/17 03:47:10;;;;;;;25.33;12.30;;;;;;;;;;10456989;28;20143;-70
2023/01/17 03:52:11;;;;;;;23.55;11.93;;;;;;;;;;10456249;28;20025;-75
2023/01/17 03:57:11;;;;;;;24.88;12.02;;;;;;;;;;10457061;28;20024;-80
2023/01/17 04:02:11;;;;;;;28.60;12.73;;;;;;;;;;10440545;28;20068;-80
2023/01/17 04:07:12;;;;;;;29.30;13.25;;;;;;;;;;10440037;28;20499;-77
2023/01/17 04:12:12;;;;;;;29.52;13.13;;;;;;;;;;10433297;28;20155;-76
2023/01/17 04:17:13;;;;;;;30.70;14.37;;;;;;;;;;10436058;28;20531;-78
2023/01/17 04:22:13;;;;;;;27.27;13.30;;;;;;;;;;10456433;28;20225;-75
2023/01/17 04:27:15;;;;;;;33.13;13.65;;;;;;;;;;10451349;28;20029;-72
2023/01/17 04:32:15;;;;;;;26.00;12.07;;;;;;;;;;10471575;28;20064;-77
2023/01/17 04:37:16;;;;;;;27.93;12.80;;;;;;;;;;10470771;28;20482;-73
2023/01/17 04:42:16;;;;;;;27.77;12.93;;;;;;;;;;10440240;28;20398;-78
2023/01/17 04:47:16;;;;;;;27.52;13.95;;;;;;;;;;10433606;28;20392;-71
2023/01/17 04:52:18;;;;;;;33.90;14.75;;;;;;;;;;10455287;28;20021;-75
2023/01/17 04:57:19;;;;;;;29.48;13.88;;;;;;;;;;10459487;28;20044;-74
2023/01/17 05:02:19;;;;;;;23.90;11.13;;;;;;;;;;10461030;28;20140;-78
2023/01/17 05:07:19;;;;;;;30.27;12.40;;;;;;;;;;10461039;28;20059;-74
2023/01/17 05:12:20;;;;;;;25.08;11.75;;;;;;;;;;10460746;28;20039;-71
2023/01/17 05:17:20;;;;;;;23.47;9.60;;;;;;;;;;10460125;28;20325;-76
2023/01/17 05:22:21;;;;;;;22.85;10.38;;;;;;;;;;10444824;28;20017;-71
2023/01/17 05:27:21;;;;;;;17.10;8.50;;;;;;;;;;10435917;28;20116;-75
2023/01/17 05:32:21;;;;;;;20.03;10.00;;;;;;;;;;10460753;28;20028;-76
2023/01/17 05:37:21;;;;;;;17.58;7.97;;;;;;;;;;10460066;28;20025;-76
2023/01/17 05:42:22;;;;;;;18.25;8.60;;;;;;;;;;10441905;28;20021;-74
2023/01/17 05:47:22;;;;;;;20.27;9.00;;;;;;;;;;10442653;28;20024;-77
2023/01/17 05:52:22;;;;;;;18.30;8.50;;;;;;;;;;10451098;28;20029;-75
2023/01/17 05:57:23;;;;;;;19.27;8.13;;;;;;;;;;10441350;28;20125;-76
2023/01/17 06:02:23;;;;;;;16.98;7.53;;;;;;;;;;10440973;28;20040;-76
2023/01/17 06:07:23;;;;;;;19.55;7.90;;;;;;;;;;10459575;28;20036;-77
2023/01/17 06:12:23;;;;;;;17.65;8.52;;;;;;;;;;10440889;28;20017;-77
2023/01/17 06:17:24;;;;;;;15.23;7.82;;;;;;;;;;10454236;28;20518;-78
2023/01/17 06:22:24;;;;;;;14.98;6.45;;;;;;;;;;10454418;28;20578;-79
2023/01/17 06:27:24;;;;;;;12.60;6.57;;;;;;;;;;10454538;28;20198;-77
2023/01/17 06:32:25;;;;;;;7.78;4.63;;;;;;;;;;10417422;28;20025;-76
2023/01/17 06:37:26;;;;;;;8.53;5.03;;;;;;;;;;10456192;28;20487;-77
2023/01/17 06:42:26;;;;;;;9.50;4.72;;;;;;;;;;10448801;28;20271;-76
2023/01/17 06:47:26;;;;;;;8.75;4.13;;;;;;;;;;10464448;28;20446;-70
2023/01/17 06:52:26;;;;;;;6.00;3.50;;;;;;;;;;10442930;28;20021;-75
2023/01/17 06:57:27;;;;;;;6.80;3.92;;;;;;;;;;10519652;23;20107;-72
2023/01/17 07:02:27;;;;;;;8.38;3.70;;;;;;;;;;10499797;28;20118;-74
2023/01/17 07:07:28;;;;;;;6.90;4.25;;;;;;;;;;10464848;28;20470;-72
2023/01/17 07:12:28;;;;;;;6.00;3.30;;;;;;;;;;10490318;28;20028;-71
2023/01/17 07:17:28;;;;;;;9.55;3.63;;;;;;;;;;10474536;28;20024;-76
2023/01/17 07:22:28;;;;;;;5.18;2.80;;;;;;;;;;10485517;28;20016;-71
2023/01/17 07:27:29;;;;;;;8.53;3.40;;;;;;;;;;10501575;28;20029;-76
2023/01/17 07:32:30;;;;;;;5.00;2.22;;;;;;;;;;10465242;28;20730;-74
2023/01/17 07:37:30;;;;;;;4.45;2.70;;;;;;;;;;10482020;28;20031;-75
2023/01/17 07:42:30;;;;;;;6.03;3.63;;;;;;;;;;10464102;28;20104;-77
2023/01/17 07:47:32;;;;;;;10.68;3.13;;;;;;;;;;10483825;28;20059;-75
2023/01/17 07:52:34;;;;;;;6.13;3.63;;;;;;;;;;10468283;28;20306;-78
2023/01/17 07:57:34;;;;;;;4.65;3.05;;;;;;;;;;10470350;28;20048;-74
2023/01/17 08:02:35;;;;;;;9.52;4.07;;;;;;;;;;10463161;28;20017;-77
2023/01/17 08:07:35;;;;;;;7.95;4.45;;;;;;;;;;10463015;28;20103;-78
2023/01/17 08:12:37;;;;;;;18.40;3.97;;;;;;;;;;10463175;28;20034;-73
2023/01/17 08:17:38;;;;;;;10.82;4.07;;;;;;;;;;10483315;28;20024;-77
2023/01/17 08:22:38;;;;;;;7.03;2.72;;;;;;;;;;10470787;28;20020;-77
2023/01/17 08:27:38;;;;;;;16.98;3.80;;;;;;;;;;10467716;28;20077;-77
2023/01/17 08:32:39;;;;;;;13.98;4.68;;;;;;;;;;10471397;28;20035;-75
2023/01/17 08:37:40;;;;;;;14.88;4.60;;;;;;;;;;10487292;28;20479;-72
2023/01/17 08:42:40;;;;;;;5.20;2.87;;;;;;;;;;10471665;28;20028;-77
2023/01/17 08:47:40;;;;;;;11.38;2.97;;;;;;;;;;10472151;28;20023;-75
2023/01/17 08:52:41;;;;;;;4.40;3.10;;;;;;;;;;10434542;22;20594;-75
2023/01/17 08:57:41;;;;;;;6.60;2.42;;;;;;;;;;10401739;28;20407;-72
2023/01/17 09:02:41;;;;;;;8.77;2.53;;;;;;;;;;10386378;28;20064;-73
2023/01/17 09:07:42;;;;;;;4.20;1.55;;;;;;;;;;10384157;28;20026;-73
2023/01/17 09:12:42;;;;;;;5.70;2.95;;;;;;;;;;10404684;28;20033;-73
2023/01/17 09:17:42;;;;;;;3.42;1.85;;;;;;;;;;10384550;28;20091;-72
2023/01/17 09:22:42;;;;;;;6.68;2.75;;;;;;;;;;10386920;28;20622;-73
2023/01/17 09:27:43;;;;;;;5.97;2.42;;;;;;;;;;10387436;28;20032;-73
2023/01/17 09:32:50;;;;;;;7.30;2.53;;;;;;;;;;10384802;28;20406;-78
2023/01/17 09:37:51;;;;;;;7.72;2.20;;;;;;;;;;10385709;28;20021;-74
2023/01/17 09:42:54;;;;;;;8.02;3.05;;;;;;;;;;10378462;28;20412;-75
2023/01/17 09:47:54;;;;;;;8.13;2.10;;;;;;;;;;10403485;28;20120;-76
2023/01/17 09:53:00;;;;;;;7.75;2.30;;;;;;;;;;10386628;28;20056;-75
2023/01/17 09:58:07;;;;;;;7.63;3.03;;;;;;;;;;10402406;28;20021;-77
2023/01/17 10:03:26;;;;;;;8.43;2.27;;;;;;;;;;10402202;28;20049;-72
2023/01/17 10:08:53;;;;;;;16.42;3.58;;;;;;;;;;10403033;28;20013;-75
2023/01/17 10:14:04;;;;;;;7.18;2.00;;;;;;;;;;10368761;28;20091;-75
2023/01/17 10:19:07;;;;;;;8.57;2.47;;;;;;;;;;10401740;28;20104;-78
2023/01/17 10:24:15;;;;;;;10.20;3.92;;;;;;;;;;10400883;28;20033;-71
2023/01/17 10:29:17;;;;;;;12.82;3.78;;;;;;;;;;10401348;28;20031;-78
2023/01/17 10:34:29;;;;;;;10.27;3.42;;;;;;;;;;10401078;28;20407;-73
2023/01/17 10:39:29;;;;;;;10.30;2.58;;;;;;;;;;10384508;28;20025;-74
2023/01/17 10:44:30;;;;;;;7.18;2.45;;;;;;;;;;10484499;22;20045;-70
2023/01/17 10:49:30;;;;;;;6.75;2.55;;;;;;;;;;10485431;28;20078;-77
2023/01/17 10:54:37;;;;;;;11.47;2.67;;;;;;;;;;10458125;28;20036;-70
2023/01/17 10:59:37;;;;;;;4.47;1.80;;;;;;;;;;10466410;28;20351;-78
2023/01/17 11:04:40;;;;;;;3.92;1.75;;;;;;;;;;10481461;28;20032;-77
2023/01/17 11:09:41;;;;;;;2.08;1.20;;;;;;;;;;10473463;28;20060;-75
2023/01/17 11:14:48;;;;;;;6.35;1.10;;;;;;;;;;10465186;28;20039;-72
2023/01/17 11:19:50;;;;;;;4.72;1.30;;;;;;;;;;10479530;28;20035;-72
2023/01/17 11:24:53;;;;;;;1.90;1.23;;;;;;;;;;10452094;28;20028;-75
2023/01/17 11:30:17;;;;;;;1.80;0.80;;;;;;;;;;10441212;28;20032;-76
2023/01/17 11:35:17;;;;;;;3.13;0.80;;;;;;;;;;10420947;28;20033;-77
2023/01/17 11:40:24;;;;;;;2.50;1.25;;;;;;;;;;10446758;28;20021;-72
2023/01/17 11:45:25;;;;;;;3.80;1.33;;;;;;;;;;10451752;28;20111;-77
2023/01/17 11:50:26;;;;;;;5.55;1.02;;;;;;;;;;10424855;28;20056;-76
2023/01/17 11:55:26;;;;;;;0.85;0.60;;;;;;;;;;10431261;28;20112;-76
2023/01/17 12:00:34;;;;;;;2.80;0.77;;;;;;;;;;10432398;28;20014;-76
2023/01/17 12:05:47;;;;;;;1.17;0.80;;;;;;;;;;10438869;28;20033;-73
2023/01/17 12:10:54;;;;;;;1.00;0.80;;;;;;;;;;10395508;28;20043;-72
2023/01/17 12:16:32;;;;;;;1.17;0.73;;;;;;;;;;10406946;28;20029;-72
2023/01/17 12:21:38;;;;;;;2.90;0.73;;;;;;;;;;10390081;28;20032;-71
2023/01/17 12:26:40;;;;;;;3.67;0.90;;;;;;;;;;10407560;28;20032;-74
2023/01/17 12:31:51;;;;;;;4.15;0.75;;;;;;;;;;10390088;28;20021;-75
2023/01/17 12:36:53;;;;;;;3.47;0.85;;;;;;;;;;10430773;28;20523;-72
2023/01/17 12:42:00;;;;;;;1.38;0.88;;;;;;;;;;10430607;28;20515;-71
2023/01/17 12:47:02;;;;;;;1.48;0.63;;;;;;;;;;10430036;28;20502;-71
2023/01/17 12:52:07;;;;;;;8.02;1.05;;;;;;;;;;10447811;28;20013;-79
2023/01/17 12:57:12;;;;;;;2.63;0.82;;;;;;;;;;10428437;28;20064;-74
2023/01/17 13:02:34;;;;;;;3.03;1.08;;;;;;;;;;10427555;28;20430;-75
2023/01/17 13:07:44;;;;;;;3.25;1.33;;;;;;;;;;10446921;28;20415;-70
2023/01/17 13:12:46;;;;;;;2.25;1.10;;;;;;;;;;10447035;28;20561;-73
2023/01/17 13:18:08;;;;;;;4.68;1.30;;;;;;;;;;10428552;28;20025;-72
2023/01/17 13:23:24;;;;;;;2.00;0.70;;;;;;;;;;10428812;28;20021;-76
2023/01/17 13:28:36;;;;;;;0.60;0.52;;;;;;;;;;10428283;28;20025;-72
2023/01/17 13:33:37;;;;;;;1.65;0.73;;;;;;;;;;10427754;28;20028;-77
2023/01/17 13:38:40;;;;;;;1.15;0.50;;;;;;;;;;10426852;28;20027;-74
2023/01/17 13:44:20;;;;;;;3.20;0.52;;;;;;;;;;10427105;28;20053;-76
2023/01/17 13:49:25;;;;;;;1.83;0.63;;;;;;;;;;10444486;28;20035;-71
2023/01/17 13:54:30;;;;;;;1.40;0.70;;;;;;;;;;10426330;28;20029;-70
2023/01/17 13:59:30;;;;;;;2.70;0.77;;;;;;;;;;10426920;28;20029;-73
2023/01/17 14:04:50;;;;;;;2.37;0.40;;;;;;;;;;10427130;28;20473;-75
2023/01/17 14:09:50;;;;;;;2.35;0.65;;;;;;;;;;10451574;28;20825;-71
2023/01/17 14:14:54;;;;;;;3.73;0.90;;;;;;;;;;10440060;28;20040;-72
2023/01/17 14:19:56;;;;;;;1.98;0.80;;;;;;;;;;10429935;28;20029;-72
2023/01/17 14:25:13;;;;;;;0.98;0.60;;;;;;;;;;10436509;28;20112;-73
2023/01/17 14:30:26;;;;;;;3.03;0.80;;;;;;;;;;10450387;28;20045;-73
2023/01/17 14:35:28;;;;;;;2.25;1.02;;;;;;;;;;10438829;28;20477;-73
2023/01/17 14:40:30;;;;;;;1.90;0.80;;;;;;;;;;10469014;28;20025;-73
2023/01/17 14:45:32;;;;;;;2.13;1.02;;;;;;;;;;10439182;28;20036;-70
2023/01/17 14:50:36;;;;;;;3.67;1.05;;;;;;;;;;10441362;28;20599;-73
2023/01/17 14:55:57;;;;;;;3.22;2.20;;;;;;;;;;10435513;28;20116;-72
2023/01/17 15:00:58;;;;;;;3.60;1.08;;;;;;;;;;10436755;28;20037;-71
2023/01/17 15:06:05;;;;;;;8.10;3.33;;;;;;;;;;10438713;28;20083;-73
2023/01/17 15:11:08;;;;;;;6.80;1.88;;;;;;;;;;10436720;28;20024;-76
2023/01/17 15:16:19;;;;;;;3.00;1.65;;;;;;;;;;10444348;28;20032;-74
2023/01/17 15:21:25;;;;;;;4.22;2.70;;;;;;;;;;10418669;28;20126;-73
2023/01/17 15:26:27;;;;;;;2.00;1.13;;;;;;;;;;10434759;28;20032;-72
2023/01/17 15:31:45;;;;;;;9.73;3.60;;;;;;;;;;10427679;28;20028;-72
2023/01/17 15:36:46;;;;;;;5.40;2.83;;;;;;;;;;10435053;28;20056;-74
2023/01/17 15:41:49;;;;;;;10.23;4.10;;;;;;;;;;10438741;28;20140;-73
2023/01/17 15:46:49;;;;;;;11.55;4.82;;;;;;;;;;10432459;28;20025;-72
2023/01/17 15:52:07;;;;;;;10.50;5.07;;;;;;;;;;10450052;28;20422;-72
2023/01/17 15:57:23;;;;;;;9.37;5.27;;;;;;;;;;10432955;28;20063;-72
2023/01/17 16:02:29;;;;;;;15.20;5.53;;;;;;;;;;10431933;28;20467;-73
2023/01/17 16:07:32;;;;;;;18.65;6.63;;;;;;;;;;10430062;28;20064;-72
2023/01/17 16:12:33;;;;;;;14.65;6.38;;;;;;;;;;10430779;28;20028;-72
2023/01/17 16:17:34;;;;;;;12.27;5.97;;;;;;;;;;10427963;28;20036;-74
2023/01/17 16:22:34;;;;;;;16.23;6.70;;;;;;;;;;10428872;28;20263;-74
2023/01/17 16:27:34;;;;;;;17.35;7.75;;;;;;;;;;10436194;28;20449;-73
2023/01/17 16:32:35;;;;;;;12.05;7.00;;;;;;;;;;10433638;28;20466;-71
2023/01/17 16:37:36;;;;;;;12.07;6.67;;;;;;;;;;10419706;28;20041;-75
2023/01/17 16:42:36;;;;;;;10.60;6.10;;;;;;;;;;10425912;28;20538;-70
2023/01/17 16:47:39;;;;;;;17.75;6.25;;;;;;;;;;10413144;28;20028;-73
2023/01/17 16:52:39;;;;;;;23.05;9.20;;;;;;;;;;10424875;28;20028;-77
2023/01/17 16:57:40;;;;;;;14.68;5.85;;;;;;;;;;10429767;28;20123;-75
2023/01/17 17:02:41;;;;;;;18.23;5.70;;;;;;;;;;10427923;28;20036;-74
2023/01/17 17:07:45;;;;;;;18.40;6.93;;;;;;;;;;10443770;28;20040;-71
2023/01/17 17:12:45;;;;;;;12.77;7.03;;;;;;;;;;10456581;28;20032;-75
2023/01/17 17:17:46;;;;;;;18.90;7.78;;;;;;;;;;10435560;28;20032;-71
2023/01/17 17:22:50;;;;;;;21.27;7.53;;;;;;;;;;10443715;28;20032;-70
2023/01/17 17:27:51;;;;;;;24.17;8.45;;;;;;;;;;10434179;28;20031;-71
2023/01/17 17:32:51;;;;;;;15.45;7.05;;;;;;;;;;10428658;28;20419;-73
2023/01/17 17:37:51;;;;;;;13.35;6.53;;;;;;;;;;10438599;28;20115;-75
2023/01/17 17:42:51;;;;;;;19.33;7.80;;;;;;;;;;10425933;28;20099;-72
2023/01/17 17:47:52;;;;;;;13.10;5.97;;;;;;;;;;10438394;28;20048;-71
2023/01/17 17:52:52;;;;;;;17.65;7.28;;;;;;;;;;10438377;28;20029;-76
2023/01/17 17:57:53;;;;;;;11.57;6.13;;;;;;;;;;10417612;28;20047;-74
2023/01/17 18:02:53;;;;;;;15.00;7.28;;;;;;;;;;10429865;28;20873;-76
2023/01/17 18:07:53;;;;;;;15.13;6.35;;;;;;;;;;10426489;28;20036;-73
2023/01/17 18:12:53;;;;;;;12.52;5.95;;;;;;;;;;10420959;28;20112;-76
2023/01/17 18:17:54;;;;;;;15.87;6.27;;;;;;;;;;10433797;28;20035;-76
2023/01/17 18:22:55;;;;;;;12.27;5.43;;;;;;;;;;10430834;28;20023;-72
2023/01/17 18:27:55;;;;;;;13.90;5.00;;;;;;;;;;10433419;28;20025;-74
2023/01/17 18:32:55;;;;;;;15.02;7.07;;;;;;;;;;10426291;28;20017;-75
2023/01/17 18:37:56;;;;;;;29.58;12.02;;;;;;;;;;10426487;28;20024;-74
2023/01/17 18:42:56;;;;;;;10.38;4.22;;;;;;;;;;10417698;28;20098;-76
2023/01/17 18:47:57;;;;;;;7.72;3.85;;;;;;;;;;10420990;28;20025;-77
2023/01/17 18:52:57;;;;;;;8.05;3.47;;;;;;;;;;10426072;28;20047;-72
2023/01/17 18:57:57;;;;;;;7.82;4.50;;;;;;;;;;10436733;28;20071;-76
2023/01/17 19:02:58;;;;;;;12.20;5.22;;;;;;;;;;10437396;28;20048;-77
2023/01/17 19:07:58;;;;;;;4.82;2.92;;;;;;;;;;10431965;28;20147;-77
2023/01/17 19:12:58;;;;;;;5.37;2.90;;;;;;;;;;10440553;28;20082;-76
2023/01/17 19:17:58;;;;;;;4.95;2.67;;;;;;;;;;10432302;28;20525;-76
2023/01/17 19:22:59;;;;;;;3.00;1.50;;;;;;;;;;10425774;28;20021;-76
2023/01/17 19:27:59;;;;;;;3.45;1.85;;;;;;;;;;10441500;28;20032;-74
2023/01/17 19:33:00;;;;;;;2.65;1.30;;;;;;;;;;10436869;28;20031;-77
2023/01/17 19:38:02;;;;;;;9.73;2.15;;;;;;;;;;10451255;28;20036;-74
2023/01/17 19:43:03;;;;;;;5.35;2.83;;;;;;;;;;10431559;28;20126;-75
2023/01/17 19:48:03;;;;;;;5.00;2.22;;;;;;;;;;10435280;28;20032;-71
2023/01/17 19:53:04;;;;;;;4.40;1.60;;;;;;;;;;10463271;28;20024;-73
2023/01/17 19:58:04;;;;;;;3.47;1.38;;;;;;;;;;10461693;28;20538;-72
2023/01/17 20:03:04;;;;;;;6.10;1.70;;;;;;;;;;10435599;28;20051;-77
2023/01/17 20:08:05;;;;;;;6.43;2.05;;;;;;;;;;10452700;28;20271;-77
2023/01/17 20:13:05;;;;;;;7.22;2.13;;;;;;;;;;10428686;28;21270;-76
2023/01/17 20:18:05;;;;;;;5.18;2.00;;;;;;;;;;10436500;28;20398;-72
2023/01/17 20:23:06;;;;;;;11.52;1.90;;;;;;;;;;10441281;28;20023;-73
2023/01/17 20:28:06;;;;;;;5.07;2.13;;;;;;;;;;10440966;28;20021;-76
2023/01/17 20:33:12;;;;;;;4.60;2.50;;;;;;;;;;10442042;28;20788;-73
2023/01/17 20:38:12;;;;;;;5.50;2.25;;;;;;;;;;10435461;28;20037;-73
2023/01/17 20:43:13;;;;;;;3.50;1.70;;;;;;;;;;10449710;28;20060;-74
2023/01/17 20:48:13;;;;;;;2.90;2.03;;;;;;;;;;10434101;28;20463;-76
2023/01/17 20:53:14;;;;;;;15.02;3.58;;;;;;;;;;10437313;28;20414;-76
2023/01/17 20:58:15;;;;;;;5.50;1.33;;;;;;;;;;10460736;28;20036;-73
2023/01/17 21:03:15;;;;;;;3.47;1.10;;;;;;;;;;10428019;28;20055;-74
2023/01/17 21:08:16;;;;;;;2.03;1.00;;;;;;;;;;10448817;28;20056;-76
2023/01/17 21:13:16;;;;;;;1.75;1.30;;;;;;;;;;10443482;28;20017;-77
2023/01/17 21:18:17;;;;;;;4.33;1.63;;;;;;;;;;10428863;28;20032;-76
2023/01/17 21:23:18;;;;;;;2.45;1.05;;;;;;;;;;10437268;28;20656;-70
2023/01/17 21:28:19;;;;;;;3.47;1.23;;;;;;;;;;10440156;28;20383;-79
2023/01/17 21:33:20;;;;;;;2.45;1.20;;;;;;;;;;10415236;28;20024;-73
2023/01/17 21:38:20;;;;;;;2.45;1.23;;;;;;;;;;10447164;28;20021;-74
2023/01/17 21:43:21;;;;;;;4.43;1.10;;;;;;;;;;10430885;28;21170;-75
2023/01/17 21:48:21;;;;;;;2.42;1.42;;;;;;;;;;10419837;28;20032;-75
2023/01/17 21:53:21;;;;;;;2.33;1.43;;;;;;;;;;10441921;28;20758;-73
2023/01/17 22:03:41;;;;;;;4.28;1.27;;;;;;;;;;10449893;28;20477;-74
2023/01/17 22:08:41;;;;;;;4.03;2.00;;;;;;;;;;10432448;28;20647;-72
2023/01/17 22:13:42;;;;;;;3.03;0.90;;;;;;;;;;10448904;28;20036;-73
2023/01/17 22:18:43;;;;;;;1.00;0.50;;;;;;;;;;10450235;28;20036;-73
2023/01/17 22:23:45;;;;;;;2.70;1.10;;;;;;;;;;10452404;28;20518;-72
2023/01/17 22:28:45;;;;;;;3.05;0.95;;;;;;;;;;10421521;28;20152;-75
2023/01/17 22:33:50;;;;;;;0.57;0.57;;;;;;;;;;10429520;28;20025;-71
2023/01/17 22:38:50;;;;;;;7.18;1.00;;;;;;;;;;10411204;28;20021;-71
2023/01/17 22:43:52;;;;;;;1.92;0.68;;;;;;;;;;10431151;28;20048;-71
2023/01/17 22:48:52;;;;;;;2.15;0.73;;;;;;;;;;10424495;28;20029;-73
2023/01/17 22:53:54;;;;;;;3.17;0.65;;;;;;;;;;10434770;28;20075;-76
2023/01/17 22:59:01;;;;;;;2.90;0.90;;;;;;;;;;10425771;28;20082;-73
2023/01/17 23:04:10;;;;;;;3.08;0.70;;;;;;;;;;10447192;28;20425;-74
2023/01/17 23:09:12;;;;;;;1.85;0.65;;;;;;;;;;10453345;28;20088;-72
2023/01/17 23:14:15;;;;;;;0.40;0.38;;;;;;;;;;10382688;28;20388;-78
2023/01/17 23:19:22;;;;;;;2.40;0.70;;;;;;;;;;10405579;28;20017;-70
2023/01/17 23:24:27;;;;;;;1.80;0.85;;;;;;;;;;10423703;28;20020;-76
2023/01/17 23:29:27;;;;;;;1.77;0.47;;;;;;;;;;10440996;28;20491;-81
2023/01/17 23:34:27;;;;;;;0.73;0.57;;;;;;;;;;10422876;28;20021;-71
2023/01/17 23:39:28;;;;;;;2.92;0.73;;;;;;;;;;10423212;28;20044;-73
2023/01/17 23:44:30;;;;;;;2.57;0.80;;;;;;;;;;10423037;28;20057;-76
2023/01/17 23:49:33;;;;;;;1.27;0.52;;;;;;;;;;10426835;28;20025;-76
2023/01/17 23:54:37;;;;;;;1.58;0.73;;;;;;;;;;10431381;28;20033;-78
2023/01/17 23:59:40;;;;;;;1.08;0.50;;;;;;;;;;10431250;28;20054;-75
